Time;durP1;ratioP1;P1;durP2;ratioP2;P2;SDS_P1;SDS_P2;PMS_P1;PMS_P2;Temp;Humidity;BMP_temperature;BMP_pressure;BME280_temperature;BME280_humidity;BME280_pressure;Samples;Min_cycle;Max_cycle;Signal;HPM_P1;HPM_P2
2021/01/23 00:00:23;;;;;;;13.00;4.60;;;2.20;99.90;;;;;;5044954;28;20037;-64
2021/01/23 00:02:49;;;;;;;10.18;4.65;;;2.20;99.90;;;;;;5043606;28;20064;-64
2021/01/23 00:05:14;;;;;;;11.75;5.18;;;2.30;99.90;;;;;;5044877;28;20033;-66
2021/01/23 00:07:40;;;;;;;20.88;5.30;;;2.30;99.90;;;;;;5042066;28;20034;-64
2021/01/23 00:10:06;;;;;;;10.70;4.05;;;2.30;99.90;;;;;;5046906;28;20044;-64
2021/01/23 00:12:31;;;;;;;12.18;4.55;;;2.30;99.90;;;;;;5043975;28;20048;-64
2021/01/23 00:14:57;;;;;;;12.90;4.53;;;2.30;99.90;;;;;;5043305;28;20049;-65
2021/01/23 00:17:23;;;;;;;13.18;4.57;;;2.40;99.90;;;;;;5044429;28;20041;-64
2021/01/23 00:19:48;;;;;;;11.32;4.63;;;2.40;99.90;;;;;;5043413;28;20029;-65
2021/01/23 00:22:14;;;;;;;12.43;3.72;;;2.40;99.90;;;;;;5044380;28;20505;-64
2021/01/23 00:24:39;;;;;;;13.65;3.88;;;2.40;99.90;;;;;;5043249;28;20045;-64
2021/01/23 00:27:05;;;;;;;13.85;5.05;;;2.40;99.90;;;;;;5043238;28;20108;-65
2021/01/23 00:29:30;;;;;;;15.27;4.35;;;2.40;99.90;;;;;;5043398;28;20374;-65
2021/01/23 00:31:56;;;;;;;14.63;4.75;;;2.40;99.90;;;;;;5041304;28;20410;-65
2021/01/23 00:34:22;;;;;;;11.75;4.68;;;2.30;99.90;;;;;;5044206;28;20533;-65
2021/01/23 00:36:48;;;;;;;12.25;4.15;;;2.40;99.90;;;;;;5042850;28;20041;-65
2021/01/23 00:39:14;;;;;;;15.38;4.35;;;2.30;99.90;;;;;;5042482;28;20037;-65
2021/01/23 00:41:39;;;;;;;14.70;4.28;;;2.30;99.90;;;;;;5042012;28;20033;-64
2021/01/23 00:44:05;;;;;;;10.90;4.15;;;2.30;99.90;;;;;;5044555;28;20036;-65
2021/01/23 00:46:30;;;;;;;15.18;4.18;;;2.30;99.90;;;;;;5041513;28;20033;-65
2021/01/23 00:48:56;;;;;;;9.43;3.20;;;2.30;99.90;;;;;;5042593;28;20429;-65
2021/01/23 00:51:21;;;;;;;12.57;3.92;;;2.40;99.90;;;;;;5044206;28;20551;-66
2021/01/23 00:53:47;;;;;;;11.35;3.55;;;2.40;99.90;;;;;;5042238;28;20406;-65
2021/01/23 00:56:12;;;;;;;12.52;4.60;;;2.40;99.90;;;;;;5043801;28;20520;-65
2021/01/23 00:58:39;;;;;;;11.25;3.33;;;2.40;99.90;;;;;;5042319;28;20494;-65
2021/01/23 01:01:05;;;;;;;8.50;3.50;;;2.40;99.90;;;;;;5044334;28;20544;-66
2021/01/23 01:03:31;;;;;;;8.35;3.55;;;2.40;99.90;;;;;;5039893;28;20044;-65
2021/01/23 01:05:56;;;;;;;6.70;3.80;;;2.40;99.90;;;;;;5037499;28;20029;-65
2021/01/23 01:08:22;;;;;;;17.95;3.67;;;2.40;99.90;;;;;;5035735;28;20045;-65
2021/01/23 01:10:48;;;;;;;10.68;3.60;;;2.40;99.90;;;;;;5040237;28;20033;-64
2021/01/23 01:13:14;;;;;;;11.05;3.72;;;2.40;99.90;;;;;;5036527;28;20047;-65
2021/01/23 01:15:39;;;;;;;13.80;4.05;;;2.40;99.90;;;;;;5039496;28;20033;-66
2021/01/23 01:18:05;;;;;;;12.38;4.57;;;2.40;99.90;;;;;;5037626;28;20408;-65
2021/01/23 01:20:31;;;;;;;10.50;4.10;;;2.40;99.90;;;;;;5038020;28;20032;-66
2021/01/23 01:22:57;;;;;;;10.43;3.78;;;2.50;99.90;;;;;;5037205;28;20033;-64
2021/01/23 01:25:22;;;;;;;16.10;4.10;;;2.50;99.90;;;;;;5036833;28;20033;-65
2021/01/23 01:27:48;;;;;;;9.85;3.58;;;2.50;99.90;;;;;;5039775;28;20091;-66
2021/01/23 01:30:14;;;;;;;14.30;4.65;;;2.50;99.90;;;;;;5036217;28;20560;-67
2021/01/23 01:32:40;;;;;;;9.88;3.83;;;2.50;99.90;;;;;;5038265;28;20052;-64
2021/01/23 01:35:06;;;;;;;13.30;4.20;;;2.40;99.90;;;;;;5037114;28;20046;-65
2021/01/23 01:37:32;;;;;;;14.93;4.80;;;2.50;99.90;;;;;;5038173;28;20036;-65
2021/01/23 01:39:57;;;;;;;11.25;3.80;;;2.50;99.90;;;;;;5038291;28;20029;-65
2021/01/23 01:42:23;;;;;;;17.35;4.63;;;2.50;99.90;;;;;;5037318;28;20032;-65
2021/01/23 01:44:49;;;;;;;12.45;4.82;;;2.50;99.90;;;;;;5038945;28;20059;-66
2021/01/23 01:47:16;;;;;;;7.60;4.10;;;2.70;99.90;;;;;;5036326;28;20486;-65
2021/01/23 01:49:42;;;;;;;11.30;3.97;;;2.70;99.90;;;;;;5039790;28;20086;-65
2021/01/23 01:52:07;;;;;;;14.38;4.80;;;2.70;99.90;;;;;;5035556;28;20387;-64
2021/01/23 01:54:33;;;;;;;16.17;5.07;;;2.70;99.90;;;;;;5040570;28;20038;-65
2021/01/23 01:56:58;;;;;;;11.85;4.03;;;2.80;99.90;;;;;;5043463;28;20055;-66
2021/01/23 01:59:24;;;;;;;15.07;5.28;;;2.80;99.90;;;;;;5041429;28;20045;-64
2021/01/23 02:02:03;;;;;;;12.60;4.60;;;2.90;99.90;;;;;;5040316;28;20626;-66
2021/01/23 02:04:46;;;;;;;13.63;4.95;;;2.90;99.90;;;;;;5040821;28;20033;-64
2021/01/23 02:07:28;;;;;;;12.15;3.85;;;2.90;99.90;;;;;;5042166;28;20037;-65
2021/01/23 02:10:43;;;;;;;10.73;4.57;;;3.00;99.90;;;;;;5043571;28;20057;-65
2021/01/23 02:13:25;;;;;;;9.27;4.63;;;3.00;99.90;;;;;;5033078;28;20044;-65
2021/01/23 02:16:16;;;;;;;16.23;5.38;;;3.00;99.90;;;;;;5043268;28;20025;-65
2021/01/23 02:18:49;;;;;;;14.88;4.53;;;3.00;99.90;;;;;;5041945;28;20481;-64
2021/01/23 02:21:34;;;;;;;8.75;4.05;;;3.10;99.90;;;;;;5043345;28;20029;-65
2021/01/23 02:24:03;;;;;;;9.52;4.40;;;3.20;99.90;;;;;;5041050;28;20037;-65
2021/01/23 02:26:48;;;;;;;9.35;4.32;;;3.20;99.90;;;;;;5040865;28;20044;-65
2021/01/23 02:29:28;;;;;;;8.82;4.80;;;3.20;99.90;;;;;;5042870;28;20032;-66
2021/01/23 02:32:01;;;;;;;12.93;4.55;;;3.20;99.90;;;;;;5040787;28;20041;-65
2021/01/23 02:34:29;;;;;;;12.88;5.53;;;3.20;99.90;;;;;;5040356;28;20131;-66
2021/01/23 02:36:56;;;;;;;16.00;4.97;;;3.20;99.90;;;;;;5039171;28;20048;-68
2021/01/23 02:39:24;;;;;;;11.88;5.07;;;3.20;99.90;;;;;;5041533;28;20043;-66
2021/01/23 02:41:54;;;;;;;11.55;5.45;;;3.20;99.90;;;;;;5040119;28;20032;-65
2021/01/23 02:44:20;;;;;;;14.88;5.82;;;3.20;99.90;;;;;;5039668;28;20391;-65
2021/01/23 02:46:47;;;;;;;15.77;6.50;;;3.20;99.90;;;;;;5038013;28;20029;-66
2021/01/23 02:49:13;;;;;;;8.18;4.32;;;3.20;99.90;;;;;;5040291;28;20764;-65
2021/01/23 02:52:00;;;;;;;12.45;5.75;;;3.20;99.90;;;;;;5038719;28;20043;-64
2021/01/23 02:54:50;;;;;;;13.73;5.35;;;3.10;99.90;;;;;;5042851;28;20111;-65
2021/01/23 02:57:19;;;;;;;14.50;6.03;;;3.10;99.90;;;;;;5042368;28;20032;-65
2021/01/23 02:59:47;;;;;;;13.45;5.20;;;3.20;99.90;;;;;;5039276;28;20456;-65
2021/01/23 03:02:15;;;;;;;11.50;5.40;;;3.20;99.90;;;;;;5041507;28;20032;-65
2021/01/23 03:04:42;;;;;;;14.18;5.15;;;3.30;99.90;;;;;;5037768;28;20037;-65
2021/01/23 03:07:09;;;;;;;17.83;6.25;;;3.30;99.90;;;;;;5042121;28;20107;-65
2021/01/23 03:09:35;;;;;;;9.45;5.25;;;3.30;99.90;;;;;;5038519;28;20031;-65
2021/01/23 03:12:01;;;;;;;9.80;5.13;;;3.30;99.90;;;;;;5041571;28;20044;-64
2021/01/23 03:14:26;;;;;;;11.65;5.72;;;3.40;99.90;;;;;;5039039;28;20056;-65
2021/01/23 03:16:54;;;;;;;12.00;5.30;;;3.40;99.90;;;;;;5040188;28;20490;-65
2021/01/23 03:19:20;;;;;;;16.55;5.88;;;3.40;99.90;;;;;;5040064;28;20037;-64
2021/01/23 03:21:48;;;;;;;11.20;4.85;;;3.40;99.90;;;;;;5038896;28;20406;-65
2021/01/23 03:24:17;;;;;;;11.00;4.65;;;3.40;99.90;;;;;;5040732;28;20036;-66
2021/01/23 03:26:43;;;;;;;13.83;6.10;;;3.30;99.90;;;;;;5038559;28;20526;-66
2021/01/23 03:29:09;;;;;;;14.27;5.70;;;3.40;99.90;;;;;;5041312;28;20033;-66
2021/01/23 03:31:35;;;;;;;16.25;5.75;;;3.30;99.90;;;;;;5036582;28;20061;-65
2021/01/23 03:34:02;;;;;;;13.02;5.45;;;3.30;99.90;;;;;;5041197;28;20029;-65
2021/01/23 03:36:28;;;;;;;10.20;4.90;;;3.30;99.90;;;;;;5038407;28;20037;-65
2021/01/23 03:38:54;;;;;;;13.25;5.43;;;3.30;99.90;;;;;;5038642;28;20383;-65
2021/01/23 03:41:19;;;;;;;13.20;5.35;;;3.30;99.90;;;;;;5039588;28;20056;-65
2021/01/23 03:43:45;;;;;;;11.50;5.57;;;3.30;99.90;;;;;;5038687;28;20033;-65
2021/01/23 03:46:11;;;;;;;12.73;5.30;;;3.30;99.90;;;;;;5040913;28;20417;-66
2021/01/23 03:48:37;;;;;;;14.20;6.13;;;3.30;99.90;;;;;;5037634;28;20107;-65
2021/01/23 03:51:04;;;;;;;13.57;5.35;;;3.30;99.90;;;;;;5041159;28;20079;-65
2021/01/23 03:53:29;;;;;;;12.50;5.32;;;3.20;99.90;;;;;;5036505;28;20041;-65
2021/01/23 03:55:55;;;;;;;10.35;4.95;;;3.20;99.90;;;;;;5039879;28;20082;-65
2021/01/23 03:58:20;;;;;;;19.10;5.78;;;3.20;99.90;;;;;;5038768;28;20140;-65
2021/01/23 04:00:46;;;;;;;12.93;5.05;;;3.10;99.90;;;;;;5038677;28;20038;-66
2021/01/23 04:03:12;;;;;;;10.27;5.13;;;3.10;99.90;;;;;;5040523;28;20558;-63
2021/01/23 04:05:38;;;;;;;12.15;5.43;;;3.10;99.90;;;;;;5037303;28;20025;-65
2021/01/23 04:08:04;;;;;;;11.68;5.15;;;3.00;99.90;;;;;;5039448;28;20120;-66
2021/01/23 04:10:30;;;;;;;11.02;5.20;;;3.00;99.90;;;;;;5037649;28;20121;-66
2021/01/23 04:12:56;;;;;;;14.65;5.30;;;2.90;99.90;;;;;;5037203;28;20548;-66
2021/01/23 04:15:22;;;;;;;16.55;5.15;;;2.90;99.90;;;;;;5038148;28;20043;-65
2021/01/23 04:17:48;;;;;;;11.85;5.38;;;2.90;99.90;;;;;;5036035;28;20040;-65
2021/01/23 04:20:14;;;;;;;13.77;5.90;;;2.90;99.90;;;;;;5038096;28;20494;-66
2021/01/23 04:22:39;;;;;;;13.00;5.82;;;2.80;99.90;;;;;;5036919;28;20510;-65
2021/01/23 04:25:05;;;;;;;15.32;5.80;;;2.80;99.90;;;;;;5040192;28;20056;-65
2021/01/23 04:27:32;;;;;;;15.00;5.82;;;2.80;99.90;;;;;;5036543;28;20029;-66
2021/01/23 04:29:58;;;;;;;15.05;5.65;;;2.80;99.90;;;;;;5039987;28;20033;-65
2021/01/23 04:32:24;;;;;;;11.93;5.10;;;2.80;99.90;;;;;;5037419;28;20040;-65
2021/01/23 04:34:49;;;;;;;20.90;6.90;;;2.80;99.90;;;;;;5037299;28;20029;-66
2021/01/23 04:37:15;;;;;;;10.75;4.88;;;2.80;99.90;;;;;;5039218;28;20056;-65
2021/01/23 04:39:40;;;;;;;13.88;5.10;;;2.80;99.90;;;;;;5037305;28;20041;-65
2021/01/23 04:42:09;;;;;;;13.70;6.07;;;2.80;99.90;;;;;;5039947;28;20037;-64
2021/01/23 04:44:36;;;;;;;11.32;5.20;;;2.80;99.90;;;;;;5040690;28;20131;-65
2021/01/23 04:47:03;;;;;;;14.13;6.30;;;2.80;99.90;;;;;;5036679;28;20037;-65
2021/01/23 04:49:30;;;;;;;14.63;5.70;;;2.80;99.90;;;;;;5039740;28;20414;-65
2021/01/23 04:51:56;;;;;;;13.13;4.60;;;2.70;99.90;;;;;;5035878;28;20029;-66
2021/01/23 04:54:22;;;;;;;12.18;5.60;;;2.80;99.90;;;;;;5039467;28;20196;-66
2021/01/23 04:56:50;;;;;;;14.88;6.10;;;2.80;99.90;;;;;;5038121;28;20640;-65
2021/01/23 04:59:16;;;;;;;11.73;5.55;;;2.80;99.90;;;;;;5037317;28;20405;-65
2021/01/23 05:01:42;;;;;;;14.18;5.43;;;2.90;99.90;;;;;;5039221;28;20033;-65
2021/01/23 05:04:07;;;;;;;14.50;5.28;;;2.90;99.90;;;;;;5036835;28;20038;-64
2021/01/23 05:06:33;;;;;;;16.50;5.53;;;2.90;99.90;;;;;;5040027;28;20037;-64
2021/01/23 05:08:59;;;;;;;14.00;5.30;;;2.90;99.90;;;;;;5036332;28;20068;-65
2021/01/23 05:11:46;;;;;;;13.27;5.45;;;3.00;99.90;;;;;;5039682;28;20071;-65
2021/01/23 05:14:14;;;;;;;12.25;5.18;;;3.10;99.90;;;;;;5038749;28;20029;-64
2021/01/23 05:16:40;;;;;;;10.73;4.93;;;3.10;99.90;;;;;;5036345;28;20577;-64
2021/01/23 05:19:07;;;;;;;9.10;4.78;;;3.20;99.90;;;;;;5039251;28;20041;-65
2021/01/23 05:21:33;;;;;;;14.02;4.88;;;3.20;99.90;;;;;;5036353;28;20044;-65
2021/01/23 05:24:13;;;;;;;12.68;4.30;;;3.30;99.90;;;;;;5039760;28;20378;-65
2021/01/23 05:26:40;;;;;;;9.63;4.65;;;3.30;99.90;;;;;;5040537;28;20037;-66
2021/01/23 05:29:07;;;;;;;14.40;4.47;;;3.30;99.90;;;;;;5039903;28;20064;-65
2021/01/23 05:31:33;;;;;;;10.85;4.28;;;3.30;99.90;;;;;;5043639;28;20112;-65
2021/01/23 05:33:59;;;;;;;11.85;5.20;;;3.30;99.90;;;;;;5039832;28;20431;-65
2021/01/23 05:36:24;;;;;;;8.52;3.63;;;3.40;99.90;;;;;;5043465;28;20040;-64
2021/01/23 05:38:50;;;;;;;10.27;4.28;;;3.40;99.90;;;;;;5039840;28;20033;-66
2021/01/23 05:41:16;;;;;;;11.70;4.40;;;3.40;99.90;;;;;;5042055;28;20025;-66
2021/01/23 05:43:50;;;;;;;8.90;3.92;;;3.50;99.90;;;;;;5042238;28;20021;-65
2021/01/23 05:46:25;;;;;;;14.68;3.92;;;3.50;99.90;;;;;;5042110;28;20108;-66
2021/01/23 05:48:51;;;;;;;6.90;3.90;;;3.60;99.90;;;;;;5039186;28;20033;-65
2021/01/23 05:51:18;;;;;;;8.13;4.05;;;3.50;99.90;;;;;;5040481;28;20037;-66
2021/01/23 05:53:44;;;;;;;11.13;4.20;;;3.60;99.90;;;;;;5040445;28;20098;-65
2021/01/23 05:56:10;;;;;;;7.78;3.72;;;3.60;99.90;;;;;;5040547;28;20064;-66
2021/01/23 05:58:41;;;;;;;6.88;3.45;;;3.60;99.90;;;;;;5042946;28;20462;-65
2021/01/23 06:01:13;;;;;;;;;;;3.60;99.90;;;;;;5040499;28;20041;-65
2021/01/23 06:03:49;;;;;;;9.38;3.60;;;3.70;99.90;;;;;;5042207;28;19913;-66
2021/01/23 06:06:15;;;;;;;6.30;3.17;;;3.70;99.90;;;;;;5041237;28;20441;-64
2021/01/23 06:08:47;;;;;;;5.75;3.38;;;3.70;99.90;;;;;;5041776;28;20028;-65
2021/01/23 06:11:19;;;;;;;6.72;3.55;;;3.70;99.90;;;;;;5040929;28;20037;-66
2021/01/23 06:13:52;;;;;;;10.75;3.17;;;3.80;99.90;;;;;;5040859;28;20037;-65
2021/01/23 06:16:32;;;;;;;7.43;3.90;;;3.80;99.90;;;;;;5040528;28;20045;-65
2021/01/23 06:19:27;;;;;;;9.05;5.10;;;3.70;99.90;;;;;;5043382;28;20094;-64
2021/01/23 06:21:53;;;;;;;6.07;3.50;;;3.80;99.90;;;;;;5043699;28;20043;-63
2021/01/23 06:24:44;;;;;;;7.18;3.28;;;3.80;99.90;;;;;;5041604;28;20128;-65
2021/01/23 06:27:09;;;;;;;9.18;3.70;;;3.80;99.90;;;;;;5043853;28;20075;-66
2021/01/23 06:29:37;;;;;;;9.88;3.38;;;3.80;99.90;;;;;;5040018;28;20065;-65
2021/01/23 06:32:14;;;;;;;10.05;3.53;;;3.80;99.90;;;;;;5041888;28;20029;-65
2021/01/23 06:34:57;;;;;;;12.25;4.63;;;3.80;99.90;;;;;;5039186;28;20037;-65
2021/01/23 06:37:29;;;;;;;8.32;3.75;;;3.90;99.90;;;;;;5039481;28;20037;-65
2021/01/23 06:40:09;;;;;;;6.63;2.97;;;3.90;99.90;;;;;;5040319;28;20047;-65
2021/01/23 06:42:39;;;;;;;;;;;3.90;99.90;;;;;;5044878;28;20037;-66
2021/01/23 06:45:21;;;;;;;8.27;2.90;;;3.90;99.90;;;;;;5041534;28;19917;-65
2021/01/23 06:47:49;;;;;;;15.30;3.63;;;3.90;99.90;;;;;;5041272;28;20041;-65
2021/01/23 06:50:33;;;;;;;8.93;4.05;;;3.90;99.90;;;;;;5040068;28;20051;-65
2021/01/23 06:52:59;;;;;;;11.15;3.50;;;3.90;99.90;;;;;;5042670;28;20036;-65
2021/01/23 06:55:46;;;;;;;11.63;3.90;;;3.90;99.90;;;;;;5038753;28;20033;-64
2021/01/23 06:58:14;;;;;;;8.02;3.22;;;3.90;99.90;;;;;;5042516;28;20044;-65
2021/01/23 07:00:39;;;;;;;10.50;3.90;;;3.90;99.90;;;;;;5040476;28;20125;-65
2021/01/23 07:03:09;;;;;;;5.90;3.30;;;4.00;99.90;;;;;;5040490;28;20044;-65
2021/01/23 07:05:43;;;;;;;6.37;2.90;;;4.00;99.90;;;;;;5039521;28;20038;-65
2021/01/23 07:08:09;;;;;;;15.27;3.45;;;4.00;99.90;;;;;;5038697;28;20037;-65
2021/01/23 07:10:34;;;;;;;10.30;3.13;;;4.10;99.90;;;;;;5039320;28;20505;-65
2021/01/23 07:13:00;;;;;;;12.77;4.00;;;4.10;99.90;;;;;;5040958;28;20017;-66
2021/01/23 07:15:28;;;;;;;6.68;3.17;;;4.10;99.90;;;;;;5038006;28;20037;-66
2021/01/23 07:17:54;;;;;;;5.95;3.17;;;4.10;99.90;;;;;;5042487;28;20492;-65
2021/01/23 07:20:20;;;;;;;8.30;3.33;;;4.10;99.90;;;;;;5037817;28;20030;-65
2021/01/23 07:22:46;;;;;;;9.07;3.38;;;4.10;99.90;;;;;;5041188;28;20486;-65
2021/01/23 07:25:16;;;;;;;5.90;3.22;;;4.10;99.90;;;;;;5038911;28;20036;-65
2021/01/23 07:27:44;;;;;;;10.48;3.20;;;4.10;99.90;;;;;;5045385;28;20021;-66
2021/01/23 07:30:17;;;;;;;7.20;3.00;;;4.00;99.90;;;;;;5048921;28;20071;-65
2021/01/23 07:32:47;;;;;;;9.00;4.28;;;4.00;99.90;;;;;;5046724;28;20079;-65
2021/01/23 07:35:16;;;;;;;8.40;3.75;;;4.00;99.90;;;;;;5048710;28;20116;-65
2021/01/23 07:37:52;;;;;;;11.65;3.95;;;4.00;99.90;;;;;;5048945;28;20482;-65
2021/01/23 07:40:22;;;;;;;9.85;3.55;;;4.00;99.90;;;;;;5049000;28;20408;-66
2021/01/23 07:42:49;;;;;;;6.35;3.60;;;4.00;99.90;;;;;;5048921;28;20033;-66
2021/01/23 07:45:16;;;;;;;15.05;4.05;;;3.90;99.90;;;;;;5048577;28;20547;-65
2021/01/23 07:47:42;;;;;;;6.28;3.03;;;3.90;99.90;;;;;;5048095;28;20041;-65
2021/01/23 07:50:13;;;;;;;9.13;3.90;;;3.90;99.90;;;;;;5046711;28;20389;-66
2021/01/23 07:52:40;;;;;;;8.43;3.22;;;3.90;99.90;;;;;;5049072;28;20112;-65
2021/01/23 07:55:07;;;;;;;7.75;3.47;;;3.90;99.90;;;;;;5048172;28;20482;-65
2021/01/23 07:57:33;;;;;;;37.08;4.70;;;3.90;99.90;;;;;;5039813;28;20028;-64
2021/01/23 07:59:59;;;;;;;9.05;3.58;;;3.90;99.90;;;;;;5043515;28;20037;-65
2021/01/23 08:02:25;;;;;;;7.57;3.60;;;3.80;99.90;;;;;;5044151;28;20303;-65
2021/01/23 08:04:56;;;;;;;8.43;3.95;;;3.80;99.90;;;;;;5045067;28;20029;-65
2021/01/23 08:07:32;;;;;;;7.85;3.58;;;3.70;99.90;;;;;;5046126;28;20094;-64
2021/01/23 08:10:18;;;;;;;10.80;4.10;;;3.70;99.90;;;;;;5041800;28;20025;-66
2021/01/23 08:12:56;;;;;;;7.65;3.08;;;3.60;99.90;;;;;;5041953;28;20129;-65
2021/01/23 08:15:31;;;;;;;6.28;3.13;;;3.70;99.90;;;;;;5043299;28;20036;-65
2021/01/23 08:17:57;;;;;;;9.35;2.90;;;3.80;99.90;;;;;;5045330;28;20428;-65
2021/01/23 08:20:32;;;;;;;8.20;3.63;;;3.80;99.90;;;;;;5044635;28;20029;-65
2021/01/23 08:23:18;;;;;;;10.98;3.60;;;3.80;99.90;;;;;;5041967;28;20079;-65
2021/01/23 08:25:49;;;;;;;6.97;3.10;;;3.80;99.90;;;;;;5046701;28;20029;-66
2021/01/23 08:28:33;;;;;;;9.43;3.22;;;3.90;99.90;;;;;;5044306;28;20078;-68
2021/01/23 08:31:18;;;;;;;8.23;3.22;;;3.90;99.90;;;;;;5042027;28;20037;-64
2021/01/23 08:33:47;;;;;;;6.30;3.38;;;4.00;99.90;;;;;;5045383;28;20045;-65
2021/01/23 08:36:13;;;;;;;16.92;5.03;;;4.00;99.90;;;;;;5048367;28;20033;-66
2021/01/23 08:38:38;;;;;;;8.35;2.88;;;4.10;99.90;;;;;;5044224;28;20059;-66
2021/01/23 08:41:04;;;;;;;9.98;3.85;;;4.10;99.90;;;;;;5040938;28;20036;-65
2021/01/23 08:43:29;;;;;;;7.28;3.33;;;4.10;99.90;;;;;;5044710;28;20075;-65
2021/01/23 08:45:55;;;;;;;7.43;3.28;;;4.10;99.90;;;;;;5039723;28;20432;-65
2021/01/23 08:48:21;;;;;;;7.80;3.63;;;4.10;99.90;;;;;;5042094;28;20033;-65
2021/01/23 08:50:47;;;;;;;5.65;2.72;;;4.20;99.90;;;;;;5031856;28;20052;-65
2021/01/23 08:53:12;;;;;;;7.20;3.50;;;4.10;99.90;;;;;;5036689;28;20490;-66
2021/01/23 08:55:38;;;;;;;9.13;3.13;;;4.10;99.90;;;;;;5037574;28;20046;-64
2021/01/23 08:58:03;;;;;;;7.25;2.92;;;4.10;99.90;;;;;;5035365;28;20033;-66
2021/01/23 09:00:29;;;;;;;6.85;2.47;;;4.20;99.90;;;;;;5036846;28;20029;-66
2021/01/23 09:02:54;;;;;;;7.70;3.22;;;4.10;99.90;;;;;;5038315;28;20045;-65
2021/01/23 09:05:20;;;;;;;7.90;3.35;;;4.10;99.90;;;;;;5042515;28;20032;-65
2021/01/23 09:07:46;;;;;;;7.57;3.05;;;4.10;99.90;;;;;;5034184;28;20037;-65
2021/01/23 09:10:12;;;;;;;10.15;3.30;;;4.00;99.90;;;;;;5040757;28;20032;-65
2021/01/23 09:12:38;;;;;;;8.82;3.75;;;4.00;99.90;;;;;;5039358;28;20044;-65
2021/01/23 09:15:06;;;;;;;6.65;3.35;;;4.00;99.90;;;;;;5038500;28;20025;-66
2021/01/23 09:17:32;;;;;;;8.75;3.00;;;4.00;99.90;;;;;;5041966;28;20040;-65
2021/01/23 09:19:57;;;;;;;7.22;3.30;;;4.00;99.90;;;;;;5043159;28;20120;-64
2021/01/23 09:22:23;;;;;;;10.27;3.25;;;4.00;99.90;;;;;;5046427;28;20064;-66
2021/01/23 09:24:48;;;;;;;8.48;3.58;;;3.90;99.90;;;;;;5047296;28;20509;-65
2021/01/23 09:27:14;;;;;;;7.22;3.50;;;3.90;99.90;;;;;;5047753;28;20028;-64
2021/01/23 09:29:40;;;;;;;7.50;3.75;;;3.90;99.90;;;;;;5050101;28;20035;-65
2021/01/23 09:32:07;;;;;;;6.05;3.25;;;4.00;99.90;;;;;;5043917;28;20491;-65
2021/01/23 09:34:35;;;;;;;8.30;3.47;;;4.00;99.90;;;;;;5049071;28;20493;-65
2021/01/23 09:37:02;;;;;;;9.40;3.13;;;4.00;99.90;;;;;;5045109;28;20033;-65
2021/01/23 09:39:30;;;;;;;10.13;3.67;;;4.10;99.90;;;;;;5046798;28;20037;-65
2021/01/23 09:41:56;;;;;;;10.25;3.53;;;4.10;99.90;;;;;;5050611;28;20078;-65
2021/01/23 09:44:22;;;;;;;7.18;3.13;;;4.10;99.90;;;;;;5040541;28;20042;-64
2021/01/23 09:46:47;;;;;;;7.00;3.13;;;4.10;99.90;;;;;;5038840;28;20033;-65
2021/01/23 09:49:13;;;;;;;9.57;2.95;;;4.10;99.90;;;;;;5039541;28;20486;-65
2021/01/23 09:51:38;;;;;;;6.55;3.00;;;4.20;99.90;;;;;;5041798;28;20047;-65
2021/01/23 09:54:04;;;;;;;9.57;3.20;;;4.20;99.90;;;;;;5039540;28;20120;-65
2021/01/23 09:56:30;;;;;;;6.18;2.40;;;4.20;99.90;;;;;;5038825;28;20464;-65
2021/01/23 09:58:55;;;;;;;7.75;2.70;;;4.20;99.90;;;;;;5038172;28;20453;-65
2021/01/23 10:01:21;;;;;;;7.47;2.70;;;4.30;99.90;;;;;;5038291;28;20494;-66
2021/01/23 10:03:46;;;;;;;7.90;2.97;;;4.40;99.90;;;;;;5038209;28;20068;-65
2021/01/23 10:06:12;;;;;;;7.38;3.13;;;4.40;99.90;;;;;;5043417;28;20128;-65
2021/01/23 10:08:37;;;;;;;12.40;2.70;;;4.40;99.90;;;;;;5040017;28;20053;-66
2021/01/23 10:11:03;;;;;;;11.13;2.97;;;4.50;99.90;;;;;;5040174;28;20041;-64
2021/01/23 10:13:29;;;;;;;6.35;2.50;;;4.50;99.90;;;;;;5042577;28;20071;-65
2021/01/23 10:15:54;;;;;;;10.68;2.97;;;4.40;99.90;;;;;;5041429;28;20045;-65
2021/01/23 10:18:20;;;;;;;6.63;2.28;;;4.40;99.90;;;;;;5037623;28;20039;-67
2021/01/23 10:20:45;;;;;;;11.10;2.67;;;4.50;99.90;;;;;;5038956;28;20037;-66
2021/01/23 10:23:12;;;;;;;10.45;2.80;;;4.40;99.90;;;;;;5042399;28;20397;-65
2021/01/23 10:25:38;;;;;;;7.50;2.70;;;4.40;99.90;;;;;;5040159;28;20037;-65
2021/01/23 10:28:03;;;;;;;11.50;4.35;;;4.40;99.90;;;;;;5037924;28;20056;-65
2021/01/23 10:30:29;;;;;;;17.35;6.72;;;4.40;99.90;;;;;;5041396;28;20041;-64
2021/01/23 10:32:54;;;;;;;13.80;3.47;;;4.40;99.90;;;;;;5041618;28;20065;-65
2021/01/23 10:35:20;;;;;;;11.88;3.08;;;4.60;99.90;;;;;;5039652;28;20083;-66
2021/01/23 10:37:46;;;;;;;4.60;2.58;;;4.70;99.90;;;;;;5042743;28;20063;-66
2021/01/23 10:40:12;;;;;;;12.27;3.70;;;4.90;99.90;;;;;;5038866;28;20072;-66
2021/01/23 10:42:37;;;;;;;6.65;2.25;;;4.90;99.90;;;;;;5041201;28;20033;-66
2021/01/23 10:45:04;;;;;;;6.15;3.00;;;4.90;99.90;;;;;;5039383;28;20036;-66
2021/01/23 10:47:30;;;;;;;6.85;2.53;;;4.90;99.90;;;;;;5041670;28;20082;-66
2021/01/23 10:49:55;;;;;;;11.55;2.45;;;4.90;99.90;;;;;;5036932;28;20120;-66
2021/01/23 10:52:21;;;;;;;7.65;2.50;;;4.90;99.90;;;;;;5041181;28;20029;-67
2021/01/23 10:54:46;;;;;;;11.68;3.38;;;4.80;99.90;;;;;;5039640;28;20167;-66
2021/01/23 10:57:12;;;;;;;16.73;4.57;;;4.70;99.90;;;;;;5042001;28;20824;-65
2021/01/23 10:59:38;;;;;;;14.02;6.03;;;4.60;99.90;;;;;;5054248;28;20055;-67
2021/01/23 11:02:03;;;;;;;9.38;4.30;;;4.50;99.90;;;;;;5041717;28;20033;-67
2021/01/23 11:04:29;;;;;;;15.75;5.43;;;4.50;99.90;;;;;;5039887;28;20067;-66
2021/01/23 11:06:54;;;;;;;12.80;5.13;;;4.50;99.90;;;;;;5040284;28;20049;-66
2021/01/23 11:09:20;;;;;;;9.73;4.18;;;4.60;99.90;;;;;;5045461;28;20037;-66
2021/01/23 11:11:45;;;;;;;9.30;3.88;;;4.80;99.90;;;;;;5042131;28;20124;-66
2021/01/23 11:14:11;;;;;;;8.65;3.85;;;5.00;99.90;;;;;;5049010;28;20135;-67
2021/01/23 11:16:37;;;;;;;8.82;3.97;;;5.10;99.90;;;;;;5040657;28;20036;-66
2021/01/23 11:19:02;;;;;;;10.20;3.60;;;5.30;99.90;;;;;;5039295;28;20461;-67
2021/01/23 11:21:28;;;;;;;8.77;3.20;;;5.40;99.90;;;;;;5040386;28;20042;-66
2021/01/23 11:23:53;;;;;;;8.27;3.70;;;5.50;99.90;;;;;;5038994;28;20116;-67
2021/01/23 11:26:19;;;;;;;11.27;4.38;;;5.30;99.90;;;;;;5037748;28;20041;-66
2021/01/23 11:28:45;;;;;;;7.80;4.30;;;5.30;99.90;;;;;;5041679;28;20040;-65
2021/01/23 11:31:10;;;;;;;11.02;5.38;;;5.30;99.90;;;;;;5037596;28;20383;-69
2021/01/23 11:33:38;;;;;;;12.63;4.72;;;5.40;99.90;;;;;;5041743;28;20478;-66
2021/01/23 11:36:04;;;;;;;11.55;4.97;;;5.40;99.90;;;;;;5036848;28;20037;-66
2021/01/23 11:38:29;;;;;;;12.98;4.18;;;5.40;99.90;;;;;;5038663;28;20684;-66
2021/01/23 11:40:55;;;;;;;11.48;3.47;;;5.40;99.90;;;;;;5037968;28;20033;-66
2021/01/23 11:43:20;;;;;;;5.57;3.42;;;5.50;99.90;;;;;;5032823;28;20034;-66
2021/01/23 11:45:46;;;;;;;11.30;3.90;;;5.50;99.90;;;;;;5034653;28;20029;-66
2021/01/23 11:48:11;;;;;;;9.45;3.47;;;5.50;99.90;;;;;;5039699;28;20033;-66
2021/01/23 11:50:38;;;;;;;6.10;3.53;;;5.50;99.90;;;;;;5042833;28;20029;-66
2021/01/23 11:53:04;;;;;;;7.32;2.88;;;5.50;99.90;;;;;;5040977;28;20037;-66
2021/01/23 11:55:31;;;;;;;6.63;3.00;;;5.60;99.90;;;;;;5039369;28;20497;-67
2021/01/23 11:57:57;;;;;;;15.00;3.03;;;5.60;99.90;;;;;;5041608;28;20029;-66
2021/01/23 12:00:23;;;;;;;7.57;3.33;;;5.70;99.90;;;;;;5041400;28;20052;-66
2021/01/23 12:02:48;;;;;;;5.55;2.92;;;5.70;99.90;;;;;;5038726;28;20045;-67
2021/01/23 12:05:22;;;;;;;4.90;2.28;;;5.70;99.90;;;;;;5042019;28;20526;-66
2021/01/23 12:07:48;;;;;;;8.30;2.95;;;5.60;99.90;;;;;;5042409;28;20032;-66
2021/01/23 12:10:25;;;;;;;5.85;2.80;;;5.60;99.90;;;;;;5039243;28;20029;-66
2021/01/23 12:12:51;;;;;;;9.18;2.70;;;5.60;99.90;;;;;;5039339;28;20080;-66
2021/01/23 12:15:17;;;;;;;4.60;2.75;;;5.70;99.90;;;;;;5040894;28;20026;-67
2021/01/23 12:17:43;;;;;;;7.68;2.50;;;5.70;99.90;;;;;;5040327;28;20029;-66
2021/01/23 12:20:10;;;;;;;7.20;2.47;;;5.70;99.90;;;;;;5038971;28;20067;-66
2021/01/23 12:22:36;;;;;;;4.65;2.97;;;5.70;99.90;;;;;;5041874;28;20040;-66
2021/01/23 12:25:07;;;;;;;6.97;2.75;;;5.60;99.90;;;;;;5039319;28;20052;-66
2021/01/23 12:27:34;;;;;;;11.13;2.55;;;5.60;99.90;;;;;;5040887;28;20028;-66
2021/01/23 12:29:59;;;;;;;5.85;2.75;;;5.60;99.90;;;;;;5045418;28;20115;-67
2021/01/23 12:32:25;;;;;;;3.97;2.38;;;5.50;99.90;;;;;;5046592;28;20128;-66
2021/01/23 12:34:50;;;;;;;5.53;3.08;;;5.50;99.90;;;;;;5045854;28;20037;-67
2021/01/23 12:37:16;;;;;;;7.35;3.58;;;5.50;99.90;;;;;;5046846;28;20029;-66
2021/01/23 12:39:42;;;;;;;6.60;2.55;;;5.40;99.90;;;;;;5047965;28;20036;-66
2021/01/23 12:42:07;;;;;;;7.60;2.75;;;5.40;99.90;;;;;;5047810;28;20029;-67
2021/01/23 12:44:33;;;;;;;5.55;2.25;;;5.40;99.90;;;;;;5061555;28;20385;-67
2021/01/23 12:46:58;;;;;;;12.60;2.60;;;5.40;99.90;;;;;;5045297;28;20052;-67
2021/01/23 12:49:24;;;;;;;6.63;2.53;;;5.40;99.90;;;;;;5048126;28;20083;-66
2021/01/23 12:51:50;;;;;;;4.93;2.22;;;5.50;99.90;;;;;;5047540;28;20039;-67
2021/01/23 12:54:15;;;;;;;4.75;2.40;;;5.40;99.90;;;;;;5047805;28;20029;-67
2021/01/23 12:56:42;;;;;;;5.38;2.22;;;5.50;99.90;;;;;;5047799;28;20485;-67